createdAt,value
2023-04-07T00:01:56.633Z,6.38
2023-04-07T00:04:23.215Z,6.72
2023-04-07T00:06:52.328Z,7.80
2023-04-07T00:09:18.755Z,7.30
2023-04-07T00:11:45.347Z,6.45
2023-04-07T00:14:14.152Z,6.93
2023-04-07T00:16:40.693Z,6.22
2023-04-07T00:19:07.046Z,7.13
2023-04-07T00:21:33.565Z,6.85
2023-04-07T00:24:00.030Z,6.72
2023-04-07T00:26:31.396Z,6.30
2023-04-07T00:29:01.332Z,7.13
2023-04-07T00:31:27.735Z,6.15
2023-04-07T00:33:55.698Z,7.18
2023-04-07T00:36:22.398Z,7.07
2023-04-07T00:38:48.922Z,7.25
2023-04-07T00:41:15.764Z,6.60
2023-04-07T00:43:42.211Z,6.88
2023-04-07T00:46:08.696Z,7.15
2023-04-07T00:48:37.027Z,6.65
2023-04-07T00:51:04.097Z,6.65
2023-04-07T00:53:30.530Z,6.97
2023-04-07T00:55:57.069Z,7.43
2023-04-07T00:58:23.580Z,6.45
2023-04-07T01:00:58.295Z,7.25
2023-04-07T01:03:35.859Z,7.85
2023-04-07T01:06:08.667Z,7.95
2023-04-07T01:08:53.955Z,7.10
2023-04-07T01:11:25.993Z,6.47
2023-04-07T01:13:54.360Z,7.47
2023-04-07T01:16:30.433Z,6.43
2023-04-07T01:19:04.690Z,7.32
2023-04-07T01:21:34.277Z,7.15
2023-04-07T01:24:32.871Z,6.97
2023-04-07T01:27:33.000Z,7.35
2023-04-07T01:30:03.386Z,6.40
2023-04-07T01:32:31.565Z,7.43
2023-04-07T01:34:59.832Z,7.32
2023-04-07T01:37:31.060Z,6.88
2023-04-07T01:39:57.455Z,6.65
2023-04-07T01:42:26.204Z,6.97
2023-04-07T01:44:53.881Z,7.75
2023-04-07T01:47:20.617Z,7.57
2023-04-07T01:49:50.833Z,7.20
2023-04-07T01:52:21.365Z,7.32
2023-04-07T01:54:48.667Z,7.57
2023-04-07T01:57:17.523Z,7.68
2023-04-07T01:59:49.213Z,7.70
2023-04-07T02:02:18.079Z,7.25
2023-04-07T02:05:00.804Z,7.43
2023-04-07T02:07:41.162Z,7.45
2023-04-07T02:10:15.174Z,6.53
2023-04-07T02:12:47.057Z,7.00
2023-04-07T02:15:15.563Z,6.90
2023-04-07T02:17:47.810Z,6.80
2023-04-07T02:22:42.656Z,6.35
2023-04-07T02:25:22.967Z,7.30
2023-04-07T02:27:53.333Z,6.97
2023-04-07T02:30:20.291Z,6.88
2023-04-07T02:32:47.306Z,6.80
2023-04-07T02:35:17.853Z,6.80
2023-04-07T02:37:45.360Z,7.50
2023-04-07T02:40:14.688Z,6.20
2023-04-07T02:42:41.656Z,7.18
2023-04-07T02:45:09.717Z,7.25
2023-04-07T02:47:39.485Z,7.45
2023-04-07T02:50:06.682Z,7.10
2023-04-07T02:52:33.057Z,6.90
2023-04-07T02:54:59.651Z,6.35
2023-04-07T02:57:26.213Z,6.75
2023-04-07T02:59:52.582Z,6.38
2023-04-07T03:02:19.204Z,6.55
2023-04-07T03:04:45.887Z,6.97
2023-04-07T03:07:12.419Z,6.72
2023-04-07T03:09:38.803Z,7.40
2023-04-07T03:12:05.315Z,6.93
2023-04-07T03:14:31.656Z,7.25
2023-04-07T03:17:00.619Z,7.85
2023-04-07T03:19:27.393Z,6.07
2023-04-07T03:21:53.962Z,7.15
2023-04-07T03:24:20.467Z,8.18
2023-04-07T03:26:47.150Z,7.03
2023-04-07T03:29:13.864Z,8.23
2023-04-07T03:31:40.515Z,7.18
2023-04-07T03:34:07.043Z,7.30
2023-04-07T03:36:34.549Z,6.65
2023-04-07T03:39:00.981Z,7.22
2023-04-07T03:41:27.327Z,7.18
2023-04-07T03:43:53.864Z,7.13
2023-04-07T03:46:27.247Z,7.35
2023-04-07T03:48:53.961Z,6.78
2023-04-07T03:51:22.957Z,7.18
2023-04-07T03:53:49.542Z,6.78
2023-04-07T03:56:16.228Z,7.00
2023-04-07T03:58:49.758Z,6.60
2023-04-07T04:01:16.206Z,7.13
2023-04-07T04:03:43.026Z,7.10
2023-04-07T04:06:09.577Z,7.90
2023-04-07T04:08:35.997Z,7.30
2023-04-07T04:11:02.424Z,6.60
2023-04-07T04:13:28.861Z,6.32
2023-04-07T04:15:55.269Z,6.65
2023-04-07T04:18:21.679Z,7.30
2023-04-07T04:20:48.790Z,5.63
2023-04-07T04:23:16.145Z,6.43
2023-04-07T04:25:42.561Z,6.90
2023-04-07T04:28:08.963Z,6.40
2023-04-07T04:30:35.430Z,6.72
2023-04-07T04:33:01.882Z,6.82
2023-04-07T04:35:30.560Z,6.88
2023-04-07T04:37:56.945Z,6.93
2023-04-07T04:40:25.970Z,6.55
2023-04-07T04:42:52.322Z,5.57
2023-04-07T04:45:21.584Z,6.03
2023-04-07T04:47:48.102Z,6.60
2023-04-07T04:50:14.718Z,6.25
2023-04-07T04:52:41.218Z,6.05
2023-04-07T04:55:08.239Z,6.13
2023-04-07T04:57:36.061Z,5.63
2023-04-07T05:00:04.377Z,5.45
2023-04-07T05:02:30.886Z,6.20
2023-04-07T05:04:57.645Z,6.60
2023-04-07T05:07:28.840Z,5.97
2023-04-07T05:09:55.349Z,6.38
2023-04-07T05:12:22.347Z,6.90
2023-04-07T05:14:48.736Z,5.20
2023-04-07T05:17:15.215Z,7.20
2023-04-07T05:19:41.642Z,7.05
2023-04-07T05:22:08.100Z,6.82
2023-04-07T05:24:34.597Z,6.80
2023-04-07T05:27:01.825Z,7.55
2023-04-07T05:29:29.137Z,6.88
2023-04-07T05:31:58.732Z,7.40
2023-04-07T05:34:25.594Z,7.95
2023-04-07T05:36:52.010Z,7.22
2023-04-07T05:39:18.455Z,7.68
2023-04-07T05:41:47.745Z,6.85
2023-04-07T05:44:14.195Z,7.60
2023-04-07T05:46:40.603Z,7.35
2023-04-07T05:51:39.847Z,7.50
2023-04-07T05:54:11.013Z,8.13
2023-04-07T05:56:37.372Z,8.60
2023-04-07T05:59:03.787Z,8.23
2023-04-07T06:01:30.307Z,8.35
2023-04-07T06:04:03.419Z,8.68
2023-04-07T06:06:30.090Z,8.23
2023-04-07T06:08:58.239Z,9.98
2023-04-07T06:11:25.516Z,10.15
2023-04-07T06:13:51.907Z,9.02
2023-04-07T06:16:19.677Z,8.35
2023-04-07T06:18:46.376Z,7.78
2023-04-07T06:21:12.766Z,8.48
2023-04-07T06:23:39.175Z,9.05
2023-04-07T06:26:05.664Z,7.63
2023-04-07T06:28:32.033Z,9.05
2023-04-07T06:30:59.456Z,9.05
2023-04-07T06:33:26.210Z,7.55
2023-04-07T06:35:52.829Z,8.20
2023-04-07T06:38:19.216Z,8.20
2023-04-07T06:40:45.687Z,7.13
2023-04-07T06:43:12.063Z,7.45
2023-04-07T06:45:41.375Z,6.63
2023-04-07T06:48:08.058Z,6.90
2023-04-07T06:50:34.525Z,7.65
2023-04-07T06:53:03.449Z,7.22
2023-04-07T06:55:29.945Z,7.07
2023-04-07T06:57:58.683Z,6.57
2023-04-07T07:00:25.650Z,5.93
2023-04-07T07:02:52.162Z,7.80
2023-04-07T07:05:18.702Z,6.55
2023-04-07T07:07:45.232Z,6.65
2023-04-07T07:10:14.205Z,5.97
2023-04-07T07:12:40.811Z,5.53
2023-04-07T07:15:07.996Z,5.70
2023-04-07T07:17:36.901Z,5.60
2023-04-07T07:20:03.538Z,5.80
2023-04-07T07:22:30.049Z,5.53
2023-04-07T07:24:56.511Z,5.25
2023-04-07T07:27:22.896Z,5.55
2023-04-07T07:29:49.322Z,5.68
2023-04-07T07:32:15.975Z,5.63
2023-04-07T07:34:42.491Z,5.13
2023-04-07T07:37:08.900Z,4.80
2023-04-07T07:39:35.440Z,5.13
2023-04-07T07:42:02.008Z,4.72
2023-04-07T07:44:29.311Z,4.93
2023-04-07T07:46:57.171Z,4.45
2023-04-07T07:49:23.600Z,3.80
2023-04-07T07:51:50.061Z,4.05
2023-04-07T07:54:18.996Z,4.47
2023-04-07T07:56:45.868Z,3.97
2023-04-07T07:59:12.397Z,4.32
2023-04-07T08:01:44.165Z,4.97
2023-04-07T08:04:11.056Z,6.85
2023-04-07T08:06:37.603Z,5.50
2023-04-07T08:09:06.348Z,5.25
2023-04-07T08:11:33.013Z,4.60
2023-04-07T08:14:01.771Z,4.80
2023-04-07T08:16:28.234Z,3.75
2023-04-07T08:18:54.720Z,4.82
2023-04-07T08:21:21.239Z,3.85
2023-04-07T08:23:48.020Z,4.10
2023-04-07T08:26:14.765Z,4.13
2023-04-07T08:28:41.336Z,4.85
2023-04-07T08:31:07.848Z,4.20
2023-04-07T08:33:34.359Z,2.92
2023-04-07T08:36:05.764Z,5.82
2023-04-07T08:38:32.352Z,4.43
2023-04-07T08:41:06.898Z,3.28
2023-04-07T08:43:36.414Z,3.25
2023-04-07T08:46:03.109Z,3.00
2023-04-07T08:48:34.327Z,3.20
2023-04-07T08:51:09.993Z,3.73
2023-04-07T08:53:53.690Z,4.30
2023-04-07T08:56:21.926Z,2.50
2023-04-07T08:58:49.066Z,3.40
2023-04-07T09:01:16.803Z,3.53
2023-04-07T09:03:45.463Z,3.35
2023-04-07T09:06:12.380Z,3.97
2023-04-07T09:08:38.859Z,3.53
2023-04-07T09:11:05.452Z,3.38
2023-04-07T09:13:31.818Z,2.72
2023-04-07T09:16:01.750Z,3.40
2023-04-07T09:18:28.538Z,3.20
2023-04-07T09:20:56.590Z,3.38
2023-04-07T09:23:29.283Z,2.58
2023-04-07T09:25:59.765Z,2.60
2023-04-07T09:28:38.132Z,2.75
2023-04-07T09:31:04.514Z,3.08
2023-04-07T09:33:30.954Z,2.90
2023-04-07T09:35:57.624Z,3.10
2023-04-07T09:38:33.497Z,2.58
2023-04-07T09:41:17.891Z,2.92
2023-04-07T09:43:46.198Z,2.78
2023-04-07T09:46:16.618Z,2.67
2023-04-07T09:48:45.566Z,3.08
2023-04-07T09:51:18.334Z,3.55
2023-04-07T09:53:52.528Z,4.10
2023-04-07T09:56:22.268Z,4.15
2023-04-07T09:58:53.360Z,3.30
2023-04-07T10:01:21.532Z,3.07
2023-04-07T10:03:49.091Z,2.90
2023-04-07T10:06:16.706Z,3.03
2023-04-07T10:08:43.844Z,3.10
2023-04-07T10:11:10.829Z,2.67
2023-04-07T10:13:39.720Z,3.00
2023-04-07T10:16:08.001Z,4.03
2023-04-07T10:18:39.122Z,3.53
2023-04-07T10:21:08.054Z,3.25
2023-04-07T10:23:40.920Z,2.83
2023-04-07T10:26:08.837Z,2.97
2023-04-07T10:28:43.968Z,2.63
2023-04-07T10:31:11.614Z,3.13
2023-04-07T10:33:52.120Z,3.03
2023-04-07T10:36:22.366Z,2.92
2023-04-07T10:39:07.062Z,2.63
2023-04-07T10:41:43.364Z,2.50
2023-04-07T10:44:38.753Z,2.28
2023-04-07T10:47:06.401Z,3.13
2023-04-07T10:49:34.600Z,2.97
2023-04-07T10:52:13.308Z,2.55
2023-04-07T10:54:40.125Z,2.58
2023-04-07T10:57:11.453Z,2.20
2023-04-07T11:00:06.942Z,2.42
2023-04-07T11:02:33.697Z,2.60
2023-04-07T11:05:00.519Z,2.42
2023-04-07T11:07:47.159Z,2.47
2023-04-07T11:10:15.928Z,2.28
2023-04-07T11:12:43.733Z,2.20
2023-04-07T11:15:22.545Z,2.30
2023-04-07T11:18:12.059Z,2.53
2023-04-07T11:21:00.667Z,2.60
2023-04-07T11:23:30.442Z,1.65
2023-04-07T11:26:02.054Z,1.92
2023-04-07T11:28:29.621Z,1.33
2023-04-07T11:31:01.043Z,1.10
2023-04-07T11:33:32.185Z,1.05
2023-04-07T11:36:05.680Z,1.00
2023-04-07T11:38:38.943Z,1.20
2023-04-07T11:41:13.452Z,1.00
2023-04-07T11:43:43.661Z,1.38
2023-04-07T11:46:11.416Z,1.70
2023-04-07T11:48:42.447Z,2.78
2023-04-07T11:51:20.501Z,1.70
2023-04-07T11:53:50.021Z,2.47
2023-04-07T11:56:17.496Z,2.08
2023-04-07T11:58:54.993Z,2.55
2023-04-07T12:01:24.659Z,1.40
2023-04-07T12:04:02.716Z,1.13
2023-04-07T12:06:31.814Z,2.03
2023-04-07T12:08:58.313Z,1.85
2023-04-07T12:11:25.281Z,1.67
2023-04-07T12:13:51.885Z,1.40
2023-04-07T12:16:19.298Z,1.35
2023-04-07T12:18:45.890Z,1.20
2023-04-07T12:21:12.273Z,1.33
2023-04-07T12:23:38.728Z,3.50
2023-04-07T12:26:05.302Z,1.23
2023-04-07T12:28:33.895Z,1.75
2023-04-07T12:31:00.328Z,1.75
2023-04-07T12:33:26.801Z,2.22
2023-04-07T12:35:53.378Z,1.98
2023-04-07T12:38:22.531Z,1.45
2023-04-07T12:40:48.931Z,1.48
2023-04-07T12:43:15.522Z,1.55
2023-04-07T12:45:42.180Z,1.92
2023-04-07T12:48:08.725Z,2.53
2023-04-07T12:50:37.516Z,2.20
2023-04-07T12:53:05.194Z,1.65
2023-04-07T12:55:36.654Z,1.92
2023-04-07T12:58:05.734Z,1.75
2023-04-07T13:00:34.729Z,1.98
2023-04-07T13:03:01.778Z,1.55
2023-04-07T13:05:29.261Z,1.65
2023-04-07T13:07:55.925Z,1.20
2023-04-07T13:10:22.364Z,1.67
2023-04-07T13:12:51.116Z,1.65
2023-04-07T13:15:17.547Z,1.60
2023-04-07T13:17:44.059Z,1.73
2023-04-07T13:20:11.076Z,1.88
2023-04-07T13:22:46.116Z,2.17
2023-04-07T13:25:15.389Z,1.63
2023-04-07T13:27:44.287Z,1.88
2023-04-07T13:30:13.958Z,1.45
2023-04-07T13:32:40.624Z,1.42
2023-04-07T13:35:07.338Z,1.60
2023-04-07T13:37:33.701Z,1.52
2023-04-07T13:40:00.302Z,1.70
2023-04-07T13:42:26.706Z,1.40
2023-04-07T13:44:54.529Z,1.58
2023-04-07T13:47:21.523Z,1.50
2023-04-07T13:49:49.264Z,1.50
2023-04-07T13:52:16.028Z,1.55
2023-04-07T13:54:43.155Z,1.80
2023-04-07T13:57:09.705Z,1.63
2023-04-07T13:59:36.232Z,1.35
2023-04-07T14:02:02.822Z,1.25
2023-04-07T14:04:29.419Z,1.40
2023-04-07T14:06:56.162Z,1.52
2023-04-07T14:09:23.027Z,1.40
2023-04-07T14:11:52.463Z,1.30
2023-04-07T14:14:18.829Z,1.25
2023-04-07T14:16:45.203Z,1.38
2023-04-07T14:19:11.758Z,1.20
2023-04-07T14:21:38.246Z,1.10
2023-04-07T14:24:04.670Z,1.50
2023-04-07T14:26:31.044Z,1.70
2023-04-07T14:28:59.888Z,1.65
2023-04-07T14:31:26.663Z,1.42
2023-04-07T14:33:53.270Z,7.35
2023-04-07T14:36:19.696Z,3.92
2023-04-07T14:38:46.136Z,1.90
2023-04-07T14:41:13.040Z,2.05
2023-04-07T14:43:39.834Z,3.70
2023-04-07T14:46:06.962Z,3.95
2023-04-07T14:48:35.839Z,2.45
2023-04-07T14:51:09.786Z,2.15
2023-04-07T14:53:36.743Z,1.48
2023-04-07T14:56:06.575Z,0.95
2023-04-07T14:58:37.566Z,1.10
2023-04-07T15:01:06.220Z,1.40
2023-04-07T15:03:34.775Z,2.17
2023-04-07T15:06:02.522Z,1.75
2023-04-07T15:08:28.999Z,1.40
2023-04-07T15:10:55.394Z,1.40
2023-04-07T15:13:21.870Z,1.20
2023-04-07T15:15:48.261Z,1.77
2023-04-07T15:18:14.695Z,1.45
2023-04-07T15:20:41.146Z,1.85
2023-04-07T15:23:08.103Z,1.70
2023-04-07T15:25:34.602Z,1.50
2023-04-07T15:28:01.082Z,1.40
2023-04-07T15:30:27.432Z,1.20
2023-04-07T15:33:00.823Z,1.30
2023-04-07T15:35:29.931Z,0.98
2023-04-07T15:37:56.356Z,1.10
2023-04-07T15:40:22.994Z,0.98
2023-04-07T15:42:49.575Z,1.10
2023-04-07T15:45:16.059Z,1.10
2023-04-07T15:47:42.467Z,1.17
2023-04-07T15:50:09.410Z,1.38
2023-04-07T15:52:36.048Z,1.52
2023-04-07T15:55:02.632Z,1.85
2023-04-07T15:57:31.502Z,1.52
2023-04-07T15:59:57.965Z,1.30
2023-04-07T16:02:24.397Z,1.25
2023-04-07T16:04:51.264Z,1.38
2023-04-07T16:07:18.261Z,1.13
2023-04-07T16:09:44.706Z,1.23
2023-04-07T16:12:13.319Z,1.40
2023-04-07T16:14:42.092Z,1.38
2023-04-07T16:17:08.570Z,1.02
2023-04-07T16:19:35.022Z,1.02
2023-04-07T16:22:01.516Z,1.10
2023-04-07T16:24:27.951Z,0.90
2023-04-07T16:26:55.790Z,0.77
2023-04-07T16:29:25.309Z,1.40
2023-04-07T16:31:54.194Z,1.05
2023-04-07T16:34:20.712Z,0.82
2023-04-07T16:36:47.525Z,1.80
2023-04-07T16:39:13.985Z,1.40
2023-04-07T16:41:40.346Z,0.90
2023-04-07T16:44:07.136Z,0.80
2023-04-07T16:46:33.700Z,0.60
2023-04-07T16:49:00.138Z,0.60
2023-04-07T16:51:28.265Z,0.52
2023-04-07T16:53:54.930Z,0.85
2023-04-07T16:56:23.295Z,1.08
2023-04-07T16:58:52.954Z,1.00
2023-04-07T17:01:19.331Z,0.63
2023-04-07T17:03:48.402Z,0.80
2023-04-07T17:06:16.492Z,1.02
2023-04-07T17:08:43.990Z,1.20
2023-04-07T17:11:11.347Z,1.20
2023-04-07T17:13:42.755Z,1.10
2023-04-07T17:16:14.249Z,1.00
2023-04-07T17:18:46.824Z,1.25
2023-04-07T17:21:15.705Z,1.20
2023-04-07T17:23:42.492Z,0.93
2023-04-07T17:26:11.384Z,0.50
2023-04-07T17:28:37.816Z,0.88
2023-04-07T17:31:04.283Z,1.10
2023-04-07T17:33:33.481Z,0.90
2023-04-07T17:36:03.336Z,1.05
2023-04-07T17:38:30.578Z,0.80
2023-04-07T17:41:04.426Z,1.48
2023-04-07T17:43:31.661Z,1.27
2023-04-07T17:45:58.151Z,1.23
2023-04-07T17:48:24.688Z,1.38
2023-04-07T17:50:54.048Z,2.47
2023-04-07T17:53:23.020Z,1.08
2023-04-07T17:55:49.986Z,1.70
2023-04-07T17:58:20.121Z,2.70
2023-04-07T18:00:47.187Z,1.10
2023-04-07T18:03:14.725Z,1.50
2023-04-07T18:05:45.059Z,1.73
2023-04-07T18:08:15.049Z,1.40
2023-04-07T18:10:42.316Z,1.70
2023-04-07T18:13:09.120Z,1.35
2023-04-07T18:15:35.654Z,1.00
2023-04-07T18:18:05.324Z,1.20
2023-04-07T18:20:34.268Z,1.10
2023-04-07T18:23:13.653Z,1.75
2023-04-07T18:25:40.065Z,1.13
2023-04-07T18:28:06.459Z,1.13
2023-04-07T18:30:33.079Z,1.45
2023-04-07T18:32:59.452Z,1.80
2023-04-07T18:35:26.231Z,2.47
2023-04-07T18:37:52.696Z,1.67
2023-04-07T18:40:19.125Z,2.30
2023-04-07T18:42:45.603Z,1.45
2023-04-07T18:45:11.976Z,1.63
2023-04-07T18:47:38.956Z,2.55
2023-04-07T18:50:05.940Z,2.28
2023-04-07T18:52:32.437Z,1.90
2023-04-07T18:55:01.225Z,1.52
2023-04-07T18:57:30.732Z,1.55
2023-04-07T18:59:57.285Z,1.42
2023-04-07T19:02:23.786Z,1.40
2023-04-07T19:04:50.443Z,1.60
2023-04-07T19:07:16.818Z,1.48
2023-04-07T19:09:43.313Z,1.65
2023-04-07T19:12:11.221Z,1.92
2023-04-07T19:14:37.727Z,1.77
2023-04-07T19:17:06.433Z,2.03
2023-04-07T19:19:33.366Z,2.00
2023-04-07T19:21:59.904Z,1.95
2023-04-07T19:24:26.445Z,2.50
2023-04-07T19:26:53.861Z,2.00
2023-04-07T19:29:20.317Z,1.75
2023-04-07T19:31:49.266Z,2.20
2023-04-07T19:34:15.843Z,1.60
2023-04-07T19:36:42.269Z,2.63
2023-04-07T19:39:08.688Z,2.33
2023-04-07T19:41:37.996Z,2.67
2023-04-07T19:44:04.356Z,2.95
2023-04-07T19:46:33.157Z,2.13
2023-04-07T19:49:04.363Z,1.50
2023-04-07T19:51:31.045Z,1.63
2023-04-07T19:53:57.464Z,1.40
2023-04-07T19:56:25.016Z,2.00
2023-04-07T19:58:51.580Z,2.15
2023-04-07T20:01:18.230Z,1.75
2023-04-07T20:03:45.358Z,1.60
2023-04-07T20:06:18.034Z,1.83
2023-04-07T20:08:44.399Z,1.73
2023-04-07T20:11:11.202Z,1.80
2023-04-07T20:13:39.544Z,1.88
2023-04-07T20:16:06.457Z,2.10
2023-04-07T20:18:32.935Z,1.23
2023-04-07T20:21:06.243Z,1.45
2023-04-07T20:23:33.329Z,1.80
2023-04-07T20:25:59.922Z,1.40
2023-04-07T20:28:26.735Z,2.10
2023-04-07T20:30:53.198Z,1.90
2023-04-07T20:33:19.994Z,1.83
2023-04-07T20:35:47.056Z,1.65
2023-04-07T20:38:18.813Z,1.70
2023-04-07T20:40:45.482Z,1.55
2023-04-07T20:43:12.007Z,1.48
2023-04-07T20:45:40.855Z,1.85
2023-04-07T20:48:07.621Z,1.27
2023-04-07T20:50:34.096Z,1.48
2023-04-07T20:53:05.420Z,1.33
2023-04-07T20:55:31.753Z,1.42
2023-04-07T20:57:58.819Z,1.20
2023-04-07T21:00:25.943Z,1.38
2023-04-07T21:02:52.541Z,2.35
2023-04-07T21:05:19.120Z,1.55
2023-04-07T21:07:45.503Z,1.63
2023-04-07T21:10:12.263Z,1.20
2023-04-07T21:12:41.379Z,1.70
2023-04-07T21:15:11.403Z,1.65
2023-04-07T21:17:37.989Z,1.52
2023-04-07T21:20:04.746Z,1.52
2023-04-07T21:22:31.172Z,1.80
2023-04-07T21:25:00.266Z,1.52
2023-04-07T21:27:26.646Z,1.77
2023-04-07T21:29:55.433Z,1.50
2023-04-07T21:32:25.099Z,1.63
2023-04-07T21:34:52.952Z,1.73
2023-04-07T21:37:20.601Z,1.67
2023-04-07T21:39:46.960Z,2.03
2023-04-07T21:42:13.492Z,2.15
2023-04-07T21:44:42.251Z,2.17
2023-04-07T21:47:08.832Z,2.88
2023-04-07T21:49:36.130Z,2.80
2023-04-07T21:52:02.583Z,2.65
2023-04-07T21:54:31.297Z,2.22
2023-04-07T21:56:57.727Z,2.70
2023-04-07T21:59:24.075Z,3.33
2023-04-07T22:01:50.510Z,2.55
2023-04-07T22:04:19.951Z,3.10
2023-04-07T22:06:49.821Z,3.13
2023-04-07T22:09:16.192Z,3.15
2023-04-07T22:11:42.701Z,4.43
2023-04-07T22:14:11.663Z,4.50
2023-04-07T22:16:38.277Z,3.33
2023-04-07T22:19:04.710Z,3.28
2023-04-07T22:21:31.432Z,3.10
2023-04-07T22:23:57.788Z,2.38
2023-04-07T22:26:24.314Z,3.10
2023-04-07T22:28:51.282Z,2.80
2023-04-07T22:31:21.053Z,2.80
2023-04-07T22:33:47.588Z,3.08
2023-04-07T22:36:16.296Z,2.50
2023-04-07T22:38:42.969Z,2.88
2023-04-07T22:41:11.985Z,2.35
2023-04-07T22:43:38.445Z,2.97
2023-04-07T22:46:04.835Z,3.08
2023-04-07T22:48:31.319Z,3.47
2023-04-07T22:50:57.654Z,2.63
2023-04-07T22:53:24.050Z,3.35
2023-04-07T22:55:51.277Z,3.80
2023-04-07T22:58:20.009Z,3.30
2023-04-07T23:00:46.477Z,2.75
2023-04-07T23:03:14.742Z,3.25
2023-04-07T23:05:43.638Z,3.58
2023-04-07T23:08:10.444Z,3.13
2023-04-07T23:10:41.889Z,2.70
2023-04-07T23:13:08.314Z,3.77
2023-04-07T23:15:35.894Z,3.72
2023-04-07T23:18:02.305Z,4.50
2023-04-07T23:20:28.772Z,3.97
2023-04-07T23:22:55.502Z,3.92
2023-04-07T23:25:22.208Z,3.38
2023-04-07T23:27:48.730Z,3.92
2023-04-07T23:30:15.555Z,3.65
2023-04-07T23:32:44.558Z,3.00
2023-04-07T23:35:11.072Z,3.83
2023-04-07T23:37:40.113Z,3.92
2023-04-07T23:40:07.289Z,3.75
2023-04-07T23:42:33.644Z,3.95
2023-04-07T23:45:00.379Z,3.90
2023-04-07T23:47:27.006Z,3.75
2023-04-07T23:49:53.541Z,4.05
2023-04-07T23:52:21.416Z,3.70
2023-04-07T23:54:47.973Z,3.53
2023-04-07T23:57:14.400Z,4.32
2023-04-07T23:59:40.796Z,4.40
